createdAt,value
2022-12-29T00:01:48.570Z,1.60
2022-12-29T00:04:17.347Z,1.30
2022-12-29T00:06:45.488Z,1.13
2022-12-29T00:09:14.004Z,1.40
2022-12-29T00:11:42.001Z,1.40
2022-12-29T00:14:53.749Z,1.30
2022-12-29T00:17:21.588Z,1.23
2022-12-29T00:20:06.799Z,1.53
2022-12-29T00:22:52.704Z,1.50
2022-12-29T00:25:37.978Z,1.30
2022-12-29T00:28:27.209Z,1.57
2022-12-29T00:31:18.794Z,1.00
2022-12-29T00:34:04.033Z,2.23
2022-12-29T00:36:34.660Z,1.20
2022-12-29T00:39:25.903Z,1.10
2022-12-29T00:42:11.394Z,1.20
2022-12-29T00:44:39.237Z,1.17
2022-12-29T00:47:08.537Z,1.20
2022-12-29T00:49:35.484Z,1.07
2022-12-29T00:52:05.480Z,1.43
2022-12-29T00:54:35.006Z,1.50
2022-12-29T00:57:04.008Z,1.30
2022-12-29T00:59:32.592Z,1.10
2022-12-29T01:02:00.536Z,1.30
2022-12-29T01:04:31.350Z,1.30
2022-12-29T01:06:59.171Z,1.27
2022-12-29T01:09:44.959Z,1.20
2022-12-29T01:12:13.074Z,0.80
2022-12-29T01:14:42.891Z,1.10
2022-12-29T01:17:10.737Z,0.80
2022-12-29T01:19:40.086Z,1.30
2022-12-29T01:22:08.204Z,1.07
2022-12-29T01:24:36.419Z,1.00
2022-12-29T01:27:04.357Z,1.43
2022-12-29T01:29:32.661Z,0.93
2022-12-29T01:32:00.582Z,1.10
2022-12-29T01:34:28.484Z,1.03
2022-12-29T01:36:58.368Z,1.20
2022-12-29T01:39:26.498Z,1.10
2022-12-29T01:41:54.336Z,0.80
2022-12-29T01:44:51.944Z,1.17
2022-12-29T01:47:26.699Z,1.10
2022-12-29T01:49:56.594Z,0.90
2022-12-29T01:52:29.038Z,0.90
2022-12-29T01:54:59.272Z,1.00
2022-12-29T01:57:30.103Z,0.83
2022-12-29T02:00:06.442Z,1.30
2022-12-29T02:02:42.128Z,0.80
2022-12-29T02:05:16.141Z,1.40
2022-12-29T02:07:50.612Z,0.90
2022-12-29T02:10:21.301Z,1.00
2022-12-29T02:12:49.887Z,1.00
2022-12-29T02:15:18.903Z,1.10
2022-12-29T02:18:03.154Z,1.00
2022-12-29T02:20:52.523Z,1.07
2022-12-29T02:24:00.496Z,1.17
2022-12-29T02:26:45.085Z,0.93
2022-12-29T02:29:50.317Z,0.80
2022-12-29T02:32:29.290Z,0.90
2022-12-29T02:35:06.183Z,0.80
2022-12-29T02:37:44.120Z,0.93
2022-12-29T02:40:20.916Z,1.00
2022-12-29T02:42:54.032Z,0.90
2022-12-29T02:45:26.329Z,0.80
2022-12-29T02:48:04.986Z,0.80
2022-12-29T02:50:37.513Z,1.00
2022-12-29T02:53:08.863Z,0.90
2022-12-29T02:55:35.825Z,0.83
2022-12-29T02:58:18.647Z,0.87
2022-12-29T03:00:58.609Z,0.50
2022-12-29T03:03:42.641Z,1.00
2022-12-29T03:06:25.326Z,0.90
2022-12-29T03:09:00.933Z,0.80
2022-12-29T03:11:55.119Z,0.70
2022-12-29T03:14:47.131Z,0.90
2022-12-29T03:17:24.757Z,0.90
2022-12-29T03:19:59.120Z,1.13
2022-12-29T03:22:34.222Z,0.77
2022-12-29T03:25:16.249Z,0.90
2022-12-29T03:27:47.391Z,0.90
2022-12-29T03:30:15.985Z,0.80
2022-12-29T03:32:48.770Z,0.80
2022-12-29T03:35:22.074Z,0.77
2022-12-29T03:37:57.296Z,0.77
2022-12-29T03:40:26.531Z,0.90
2022-12-29T03:42:55.425Z,1.03
2022-12-29T03:45:23.896Z,1.17
2022-12-29T03:47:53.500Z,0.87
2022-12-29T03:50:22.796Z,0.97
2022-12-29T03:52:50.804Z,0.80
2022-12-29T03:55:18.808Z,0.90
2022-12-29T03:57:47.168Z,1.00
2022-12-29T04:00:20.966Z,1.00
2022-12-29T04:02:51.445Z,1.00
2022-12-29T04:05:23.547Z,0.90
2022-12-29T04:07:54.723Z,1.00
2022-12-29T04:10:22.537Z,1.17
2022-12-29T04:12:53.539Z,0.73
2022-12-29T04:15:21.437Z,1.00
2022-12-29T04:17:50.144Z,1.10
2022-12-29T04:20:36.512Z,1.17
2022-12-29T04:23:09.275Z,1.10
2022-12-29T04:25:38.828Z,1.07
2022-12-29T04:28:09.555Z,0.97
2022-12-29T04:31:08.863Z,1.40
2022-12-29T04:33:40.285Z,1.00
2022-12-29T04:36:08.813Z,0.90
2022-12-29T04:38:39.932Z,1.13
2022-12-29T04:41:08.239Z,0.93
2022-12-29T04:43:39.041Z,1.00
2022-12-29T04:46:25.377Z,1.23
2022-12-29T04:49:09.610Z,1.10
2022-12-29T04:51:56.144Z,1.10
2022-12-29T04:54:26.160Z,1.30
2022-12-29T04:57:06.677Z,1.30
2022-12-29T04:59:35.531Z,1.20
2022-12-29T05:02:03.480Z,1.23
2022-12-29T05:04:33.777Z,1.27
2022-12-29T05:07:01.712Z,1.20
2022-12-29T05:09:31.332Z,1.10
2022-12-29T05:12:00.334Z,1.50
2022-12-29T05:14:28.406Z,1.50
2022-12-29T05:16:56.456Z,1.67
2022-12-29T05:19:24.462Z,1.50
2022-12-29T05:21:52.872Z,1.30
2022-12-29T05:24:22.107Z,1.57
2022-12-29T05:26:51.467Z,1.40
2022-12-29T05:29:34.466Z,1.53
2022-12-29T05:32:02.907Z,1.27
2022-12-29T05:34:30.934Z,1.30
2022-12-29T05:36:58.777Z,1.23
2022-12-29T05:39:26.697Z,1.00
2022-12-29T05:41:59.988Z,1.20
2022-12-29T05:44:37.132Z,1.20
2022-12-29T05:47:19.793Z,1.30
2022-12-29T05:50:03.009Z,1.30
2022-12-29T05:52:40.428Z,0.80
2022-12-29T05:55:09.245Z,1.13
2022-12-29T05:57:39.414Z,1.20
2022-12-29T06:00:15.139Z,1.20
2022-12-29T06:02:43.083Z,1.43
2022-12-29T06:05:11.536Z,1.40
2022-12-29T06:07:40.857Z,1.23
2022-12-29T06:10:10.261Z,1.07
2022-12-29T06:12:47.192Z,1.60
2022-12-29T06:15:16.626Z,1.40
2022-12-29T06:17:46.077Z,1.07
2022-12-29T06:20:14.050Z,1.13
2022-12-29T06:22:42.909Z,1.40
2022-12-29T06:25:11.252Z,1.43
2022-12-29T06:27:40.394Z,1.20
2022-12-29T06:30:11.721Z,1.03
2022-12-29T06:32:41.261Z,1.27
2022-12-29T06:35:12.351Z,1.50
2022-12-29T06:37:52.873Z,1.40
2022-12-29T06:40:22.665Z,1.40
2022-12-29T06:43:02.580Z,1.43
2022-12-29T06:46:04.265Z,1.60
2022-12-29T06:48:32.042Z,1.43
2022-12-29T06:50:59.890Z,1.47
2022-12-29T06:53:27.844Z,1.30
2022-12-29T06:55:57.527Z,1.30
2022-12-29T06:58:25.371Z,1.13
2022-12-29T07:00:53.425Z,1.20
2022-12-29T07:03:22.755Z,1.40
2022-12-29T07:05:50.705Z,1.10
2022-12-29T07:08:18.785Z,1.30
2022-12-29T07:10:47.680Z,1.40
2022-12-29T07:13:15.565Z,1.27
2022-12-29T07:15:43.532Z,1.30
2022-12-29T07:18:11.354Z,1.67
2022-12-29T07:20:40.583Z,2.43
2022-12-29T07:23:08.463Z,1.67
2022-12-29T07:25:36.958Z,2.77
2022-12-29T07:28:05.236Z,1.50
2022-12-29T07:30:33.153Z,1.50
2022-12-29T07:33:01.054Z,1.20
2022-12-29T07:35:29.148Z,1.23
2022-12-29T07:37:58.333Z,1.20
2022-12-29T07:40:26.621Z,1.10
2022-12-29T07:42:54.476Z,1.67
2022-12-29T07:45:31.872Z,1.40
2022-12-29T07:48:10.460Z,1.77
2022-12-29T07:50:39.004Z,1.23
2022-12-29T07:53:08.175Z,1.70
2022-12-29T07:55:36.118Z,1.00
2022-12-29T07:58:04.298Z,1.63
2022-12-29T08:00:32.184Z,1.43
2022-12-29T08:03:00.346Z,1.10
2022-12-29T08:05:28.235Z,1.13
2022-12-29T08:07:56.016Z,1.03
2022-12-29T08:10:25.216Z,0.90
2022-12-29T08:12:53.827Z,1.27
2022-12-29T08:15:24.447Z,1.73
2022-12-29T08:17:55.398Z,1.00
2022-12-29T08:20:23.182Z,1.27
2022-12-29T08:23:16.847Z,2.53
2022-12-29T08:25:46.066Z,1.50
2022-12-29T08:28:13.906Z,1.60
2022-12-29T08:30:41.808Z,1.27
2022-12-29T08:33:09.705Z,3.00
2022-12-29T08:35:37.548Z,7.43
2022-12-29T08:38:05.578Z,15.10
2022-12-29T08:40:33.411Z,15.90
2022-12-29T08:43:02.617Z,9.77
2022-12-29T08:45:30.415Z,7.37
2022-12-29T08:47:58.171Z,1.73
2022-12-29T08:50:26.455Z,1.53
2022-12-29T08:52:54.227Z,1.13
2022-12-29T08:55:22.023Z,1.20
2022-12-29T08:57:50.065Z,1.10
2022-12-29T09:00:22.713Z,1.37
2022-12-29T09:02:50.951Z,1.13
2022-12-29T09:05:19.001Z,1.17
2022-12-29T09:07:46.967Z,1.50
2022-12-29T09:10:14.781Z,1.20
2022-12-29T09:12:42.888Z,1.57
2022-12-29T09:15:11.373Z,1.10
2022-12-29T09:17:43.765Z,1.10
2022-12-29T09:20:12.615Z,1.00
2022-12-29T09:22:40.636Z,0.90
2022-12-29T09:25:10.398Z,1.20
2022-12-29T09:27:38.636Z,1.10
2022-12-29T09:30:08.890Z,0.90
2022-12-29T09:32:43.602Z,1.10
2022-12-29T09:35:14.707Z,0.90
2022-12-29T09:37:42.907Z,0.97
2022-12-29T09:40:26.101Z,1.20
2022-12-29T09:43:06.551Z,1.40
2022-12-29T09:45:38.526Z,1.77
2022-12-29T09:48:13.837Z,4.87
2022-12-29T09:50:49.041Z,6.50
2022-12-29T09:53:21.738Z,5.90
2022-12-29T09:55:52.368Z,4.23
2022-12-29T09:58:26.439Z,6.30
2022-12-29T10:01:00.730Z,4.47
2022-12-29T10:03:34.571Z,3.77
2022-12-29T10:06:11.641Z,2.10
2022-12-29T10:08:44.452Z,2.60
2022-12-29T10:11:26.606Z,2.10
2022-12-29T10:14:16.284Z,2.10
2022-12-29T10:16:53.443Z,2.00
2022-12-29T10:19:35.240Z,1.73
2022-12-29T10:22:22.020Z,1.93
2022-12-29T10:24:54.164Z,2.10
2022-12-29T10:27:22.241Z,2.17
2022-12-29T10:29:54.279Z,2.00
2022-12-29T10:32:31.157Z,2.10
2022-12-29T10:35:05.416Z,4.33
2022-12-29T10:37:44.179Z,1.97
2022-12-29T10:40:21.484Z,3.67
2022-12-29T10:42:54.369Z,2.50
2022-12-29T10:45:25.616Z,3.33
2022-12-29T10:47:59.555Z,4.40
2022-12-29T10:50:30.470Z,2.87
2022-12-29T10:53:03.081Z,2.93
2022-12-29T10:55:34.873Z,5.93
2022-12-29T10:58:06.724Z,4.00
2022-12-29T11:00:35.380Z,2.20
2022-12-29T11:03:48.740Z,2.30
2022-12-29T11:06:23.593Z,2.40
2022-12-29T11:08:58.436Z,2.10
2022-12-29T11:11:29.053Z,6.30
2022-12-29T11:14:03.881Z,2.53
2022-12-29T11:16:33.853Z,1.90
2022-12-29T11:19:02.786Z,1.77
2022-12-29T11:21:40.568Z,1.93
2022-12-29T11:24:22.828Z,8.40
2022-12-29T11:26:53.914Z,1.70
2022-12-29T11:29:27.228Z,1.33
2022-12-29T11:31:58.390Z,1.47
2022-12-29T11:34:28.022Z,1.10
2022-12-29T11:37:02.567Z,1.10
2022-12-29T11:39:38.903Z,1.43
2022-12-29T11:42:14.528Z,1.90
2022-12-29T11:44:45.796Z,1.10
2022-12-29T11:47:30.689Z,1.30
2022-12-29T11:50:01.523Z,1.50
2022-12-29T11:52:34.200Z,1.67
2022-12-29T11:55:06.449Z,1.60
2022-12-29T11:57:37.004Z,0.83
2022-12-29T12:00:17.884Z,1.23
2022-12-29T12:02:50.908Z,1.30
2022-12-29T12:05:27.972Z,1.03
2022-12-29T12:08:01.619Z,1.10
2022-12-29T12:10:39.492Z,1.30
2022-12-29T12:13:16.493Z,1.43
2022-12-29T12:15:52.843Z,0.87
2022-12-29T12:18:43.778Z,1.13
2022-12-29T12:21:20.637Z,1.33
2022-12-29T12:24:09.609Z,1.57
2022-12-29T12:26:44.647Z,1.03
2022-12-29T12:29:16.386Z,1.30
2022-12-29T12:31:49.265Z,1.40
2022-12-29T12:34:24.687Z,1.57
2022-12-29T12:37:11.082Z,3.60
2022-12-29T12:39:50.591Z,2.90
2022-12-29T12:42:30.860Z,4.00
2022-12-29T12:45:34.308Z,2.37
2022-12-29T12:48:17.525Z,1.90
2022-12-29T12:50:54.169Z,2.40
2022-12-29T12:53:48.860Z,1.87
2022-12-29T12:56:46.081Z,2.60
2022-12-29T12:59:32.413Z,1.10
2022-12-29T13:02:10.355Z,1.70
2022-12-29T13:05:09.973Z,1.83
2022-12-29T13:07:49.030Z,1.77
2022-12-29T13:10:29.503Z,1.30
2022-12-29T13:13:14.505Z,1.90
2022-12-29T13:15:53.345Z,1.23
2022-12-29T13:18:28.986Z,1.27
2022-12-29T13:21:06.477Z,1.40
2022-12-29T13:23:44.138Z,1.80
2022-12-29T13:26:21.449Z,1.70
2022-12-29T13:28:57.429Z,1.57
2022-12-29T13:31:35.785Z,1.27
2022-12-29T13:34:14.250Z,1.80
2022-12-29T13:36:46.086Z,1.50
2022-12-29T13:39:21.572Z,1.17
2022-12-29T13:41:52.965Z,1.20
2022-12-29T13:44:26.308Z,1.50
2022-12-29T13:46:58.479Z,1.20
2022-12-29T13:49:27.975Z,1.90
2022-12-29T13:51:58.207Z,1.53
2022-12-29T13:54:37.373Z,1.60
2022-12-29T13:57:12.444Z,1.80
2022-12-29T13:59:46.418Z,1.27
2022-12-29T14:02:26.957Z,2.10
2022-12-29T14:05:00.880Z,1.60
2022-12-29T14:07:30.159Z,1.77
2022-12-29T14:09:59.386Z,1.83
2022-12-29T14:12:33.544Z,1.70
2022-12-29T14:15:17.496Z,1.87
2022-12-29T14:18:01.380Z,2.10
2022-12-29T14:20:29.426Z,4.13
2022-12-29T14:23:00.047Z,5.33
2022-12-29T14:25:58.180Z,3.43
2022-12-29T14:28:27.345Z,6.60
2022-12-29T14:30:57.049Z,2.93
2022-12-29T14:33:29.303Z,8.97
2022-12-29T14:35:58.148Z,5.77
2022-12-29T14:38:33.915Z,3.53
2022-12-29T14:41:32.834Z,7.00
2022-12-29T14:44:16.843Z,6.73
2022-12-29T14:46:48.548Z,7.80
2022-12-29T14:49:21.321Z,6.87
2022-12-29T14:51:50.228Z,2.40
2022-12-29T14:54:44.259Z,1.97
2022-12-29T14:57:20.837Z,3.90
2022-12-29T14:59:50.596Z,1.90
2022-12-29T15:02:23.244Z,1.90
2022-12-29T15:04:55.241Z,2.77
2022-12-29T15:07:23.321Z,2.50
2022-12-29T15:09:58.569Z,2.50
2022-12-29T15:12:38.235Z,3.17
2022-12-29T15:15:20.257Z,2.90
2022-12-29T15:17:48.630Z,3.80
2022-12-29T15:20:24.777Z,3.63
2022-12-29T15:22:57.263Z,2.97
2022-12-29T15:25:27.124Z,2.30
2022-12-29T15:27:58.036Z,3.17
2022-12-29T15:30:26.089Z,2.33
2022-12-29T15:32:54.260Z,3.47
2022-12-29T15:35:33.472Z,2.43
2022-12-29T15:38:04.194Z,2.27
2022-12-29T15:40:34.397Z,3.37
2022-12-29T15:43:15.192Z,3.33
2022-12-29T15:45:43.297Z,3.77
2022-12-29T15:48:19.199Z,3.33
2022-12-29T15:50:49.406Z,4.00
2022-12-29T15:53:25.768Z,20.43
2022-12-29T15:55:58.342Z,5.30
2022-12-29T15:58:31.245Z,2.00
2022-12-29T16:01:01.666Z,0.90
2022-12-29T16:03:34.743Z,1.10
2022-12-29T16:06:12.996Z,0.53
2022-12-29T16:08:42.051Z,0.60
2022-12-29T16:11:27.667Z,1.40
2022-12-29T16:13:57.450Z,1.40
2022-12-29T16:16:30.131Z,1.77
2022-12-29T16:18:59.210Z,1.00
2022-12-29T16:21:31.955Z,1.20
2022-12-29T16:24:04.165Z,2.30
2022-12-29T16:26:32.141Z,1.37
2022-12-29T16:29:03.142Z,2.47
2022-12-29T16:31:36.950Z,4.13
2022-12-29T16:34:23.503Z,24.90
2022-12-29T16:36:58.408Z,44.80
2022-12-29T16:39:29.609Z,29.83
2022-12-29T16:41:57.777Z,18.53
2022-12-29T16:44:28.407Z,17.13
2022-12-29T16:47:20.012Z,7.40
2022-12-29T16:49:53.379Z,6.73
2022-12-29T16:52:25.851Z,13.63
2022-12-29T16:54:57.098Z,11.13
2022-12-29T16:57:29.040Z,12.30
2022-12-29T17:00:00.415Z,17.00
2022-12-29T17:02:31.542Z,11.30
2022-12-29T17:04:59.479Z,3.87
2022-12-29T17:07:30.028Z,3.80
2022-12-29T17:09:57.920Z,3.07
2022-12-29T17:12:28.645Z,2.20
2022-12-29T17:14:59.535Z,2.00
2022-12-29T17:17:34.140Z,2.70
2022-12-29T17:20:05.408Z,3.13
2022-12-29T17:22:35.016Z,3.90
2022-12-29T17:25:03.848Z,3.13
2022-12-29T17:27:37.231Z,3.57
2022-12-29T17:30:11.505Z,4.17
2022-12-29T17:32:39.694Z,4.17
2022-12-29T17:35:14.309Z,3.27
2022-12-29T17:37:44.166Z,2.60
2022-12-29T17:40:15.661Z,2.47
2022-12-29T17:42:46.195Z,2.10
2022-12-29T17:45:19.263Z,2.20
2022-12-29T17:47:47.505Z,2.17
2022-12-29T17:50:17.169Z,2.30
2022-12-29T17:52:51.300Z,4.53
2022-12-29T17:55:21.027Z,4.00
2022-12-29T17:57:49.307Z,4.33
2022-12-29T18:00:19.206Z,4.53
2022-12-29T18:02:47.266Z,4.90
2022-12-29T18:05:22.559Z,4.13
2022-12-29T18:07:52.776Z,2.17
2022-12-29T18:10:20.881Z,1.70
2022-12-29T18:12:50.632Z,1.77
2022-12-29T18:15:22.009Z,1.70
2022-12-29T18:17:50.399Z,1.97
2022-12-29T18:20:18.294Z,1.50
2022-12-29T18:22:46.124Z,2.50
2022-12-29T18:25:26.028Z,1.80
2022-12-29T18:27:53.962Z,1.70
2022-12-29T18:30:21.875Z,1.83
2022-12-29T18:32:49.723Z,1.50
2022-12-29T18:36:01.659Z,1.30
2022-12-29T18:38:51.821Z,1.53
2022-12-29T18:41:23.874Z,2.00
2022-12-29T18:43:52.608Z,1.40
2022-12-29T18:46:23.574Z,2.50
2022-12-29T18:48:51.930Z,1.97
2022-12-29T18:51:22.247Z,7.47
2022-12-29T18:53:50.853Z,6.10
2022-12-29T18:56:18.674Z,2.10
2022-12-29T18:58:47.882Z,12.93
2022-12-29T19:01:20.488Z,4.77
2022-12-29T19:03:48.656Z,1.90
2022-12-29T19:06:16.622Z,4.47
2022-12-29T19:08:44.501Z,4.30
2022-12-29T19:11:12.437Z,9.83
2022-12-29T19:13:40.493Z,8.03
2022-12-29T19:16:15.171Z,9.17
2022-12-29T19:18:45.405Z,24.00
2022-12-29T19:21:15.459Z,32.30
2022-12-29T19:23:43.426Z,15.77
2022-12-29T19:26:28.080Z,5.63
2022-12-29T19:28:55.880Z,5.30
2022-12-29T19:31:25.405Z,3.20
2022-12-29T19:33:53.721Z,12.57
2022-12-29T19:36:22.610Z,4.70
2022-12-29T19:38:50.549Z,2.47
2022-12-29T19:41:18.463Z,2.40
2022-12-29T19:43:46.382Z,8.60
2022-12-29T19:46:17.164Z,4.80
2022-12-29T19:48:46.350Z,6.70
2022-12-29T19:51:17.122Z,11.47
2022-12-29T19:53:45.574Z,5.90
2022-12-29T19:56:14.415Z,5.67
2022-12-29T19:58:46.872Z,3.23
2022-12-29T20:01:18.210Z,3.33
2022-12-29T20:03:48.314Z,8.40
2022-12-29T20:06:17.273Z,3.40
2022-12-29T20:08:45.664Z,1.13
2022-12-29T20:11:16.299Z,1.60
2022-12-29T20:13:44.960Z,2.80
2022-12-29T20:16:15.820Z,12.97
2022-12-29T20:18:44.103Z,23.80
2022-12-29T20:21:15.760Z,19.87
2022-12-29T20:23:44.970Z,12.73
2022-12-29T20:26:15.631Z,11.20
2022-12-29T20:28:43.724Z,10.00
2022-12-29T20:31:17.262Z,10.33
2022-12-29T20:33:45.437Z,7.03
2022-12-29T20:36:17.071Z,7.30
2022-12-29T20:38:46.195Z,4.00
2022-12-29T20:41:15.136Z,4.30
2022-12-29T20:43:43.465Z,5.80
2022-12-29T20:46:11.777Z,4.03
2022-12-29T20:48:39.598Z,2.90
2022-12-29T20:51:07.569Z,3.83
2022-12-29T20:53:38.773Z,3.67
2022-12-29T20:56:11.608Z,4.90
2022-12-29T20:59:00.253Z,6.80
2022-12-29T21:01:27.630Z,6.90
2022-12-29T21:03:55.678Z,8.27
2022-12-29T21:06:23.636Z,2.27
2022-12-29T21:08:54.994Z,5.90
2022-12-29T21:11:23.202Z,4.37
2022-12-29T21:13:51.621Z,1.67
2022-12-29T21:16:21.212Z,2.13
2022-12-29T21:18:49.319Z,1.70
2022-12-29T21:21:19.029Z,3.10
2022-12-29T21:23:46.957Z,1.57
2022-12-29T21:26:19.062Z,3.47
2022-12-29T21:28:47.295Z,2.57
2022-12-29T21:31:25.766Z,2.40
2022-12-29T21:33:54.123Z,1.47
2022-12-29T21:36:22.727Z,1.50
2022-12-29T21:38:50.696Z,1.50
2022-12-29T21:41:20.840Z,1.37
2022-12-29T21:44:09.723Z,1.20
2022-12-29T21:46:38.390Z,2.03
2022-12-29T21:49:07.625Z,0.70
2022-12-29T21:51:54.361Z,3.23
2022-12-29T21:54:41.714Z,0.90
2022-12-29T21:57:16.608Z,1.07
2022-12-29T22:00:06.306Z,1.37
2022-12-29T22:02:54.689Z,1.63
2022-12-29T22:05:40.312Z,2.13
2022-12-29T22:08:25.413Z,2.97
2022-12-29T22:11:10.729Z,1.47
2022-12-29T22:13:40.483Z,2.93
2022-12-29T22:16:11.119Z,4.30
2022-12-29T22:18:39.730Z,5.37
2022-12-29T22:21:09.615Z,1.90
2022-12-29T22:23:38.245Z,1.10
2022-12-29T22:26:07.123Z,1.50
2022-12-29T22:28:37.835Z,0.70
2022-12-29T22:31:08.457Z,1.07
2022-12-29T22:33:36.382Z,0.70
2022-12-29T22:36:04.552Z,0.90
2022-12-29T22:38:33.508Z,0.50
2022-12-29T22:41:01.400Z,7.80
2022-12-29T22:43:30.550Z,6.20
2022-12-29T22:46:03.937Z,0.90
2022-12-29T22:48:34.181Z,1.93
2022-12-29T22:51:02.140Z,4.20
2022-12-29T22:53:30.050Z,2.97
2022-12-29T22:56:06.212Z,2.60
2022-12-29T22:58:34.469Z,2.73
2022-12-29T23:01:02.865Z,11.17
2022-12-29T23:03:30.718Z,10.37
2022-12-29T23:06:01.815Z,6.80
2022-12-29T23:08:33.043Z,3.20
2022-12-29T23:11:01.280Z,2.00
2022-12-29T23:13:29.523Z,2.47
2022-12-29T23:15:57.447Z,8.07
2022-12-29T23:18:26.865Z,0.80
2022-12-29T23:20:54.714Z,0.20
2022-12-29T23:23:41.770Z,2.30
2022-12-29T23:26:14.224Z,6.90
2022-12-29T23:28:42.512Z,5.20
2022-12-29T23:31:10.836Z,3.90
2022-12-29T23:33:38.638Z,2.20
2022-12-29T23:36:07.351Z,1.50
2022-12-29T23:38:36.701Z,2.30
2022-12-29T23:41:04.624Z,1.23
2022-12-29T23:43:32.685Z,1.80
2022-12-29T23:46:07.069Z,1.80
2022-12-29T23:48:34.973Z,1.10
2022-12-29T23:51:02.733Z,1.40
2022-12-29T23:53:30.537Z,1.60
2022-12-29T23:55:59.882Z,1.10
2022-12-29T23:58:31.234Z,1.83
